Brecksville, Ohio
Current Conditions -  °F | °C
As of 3:51 AM on Friday 31 Oct 2014 (Local Time) from KCLE Reporting Station
Overcast Overcast  
Wind Chill: 40°   Ceiling: 4800
Heat Index: 44°   Visibility: 10mi
Dew Point: 35°   Wind: 8mph
Humidity: 71%   Direction: 200°SSW
Pressure: 30"   Gusts: NA
Location:  41.32°N, 81.63°W
Report Text: KCLE 310751Z 20007KT 10SM OVC048 07/02 A3000 RMK AO2 SLP163 T00670017
Loading
Personal Weather Stations






























Interactive Weather Map
Tropical Storm Tracking
New forecast layout! Learn more

10-Day Weather Forecast

Advertisements
Track Severe Weather on mobile